createdAt,value
2018-02-08T00:00:17.599Z,1012.84
2018-02-08T00:01:17.501Z,1012.86
2018-02-08T00:02:17.383Z,1012.87
2018-02-08T00:03:17.276Z,1012.89
2018-02-08T00:04:17.165Z,1012.88
2018-02-08T00:05:17.056Z,1012.92
2018-02-08T00:06:16.942Z,1012.95
2018-02-08T00:07:16.839Z,1012.90
2018-02-08T00:08:16.720Z,1012.94
2018-02-08T00:09:16.624Z,1012.95
2018-02-08T00:10:16.504Z,1012.96
2018-02-08T00:11:16.397Z,1012.94
2018-02-08T00:12:16.288Z,1012.98
2018-02-08T00:13:16.168Z,1012.99
2018-02-08T00:14:16.065Z,1012.97
2018-02-08T00:15:15.954Z,1012.97
2018-02-08T00:16:15.849Z,1012.98
2018-02-08T00:17:15.736Z,1013.01
2018-02-08T00:18:15.628Z,1012.97
2018-02-08T00:19:15.513Z,1012.99
2018-02-08T00:20:15.411Z,1013.01
2018-02-08T00:21:15.291Z,1013.01
2018-02-08T00:22:15.188Z,1013.04
2018-02-08T00:23:15.076Z,1013.03
2018-02-08T00:24:14.968Z,1012.99
2018-02-08T00:25:14.857Z,1012.97
2018-02-08T00:26:14.753Z,1012.97
2018-02-08T00:27:14.637Z,1012.99
2018-02-08T00:28:14.533Z,1013.02
2018-02-08T00:29:14.413Z,1012.98
2018-02-08T00:30:14.315Z,1013.05
2018-02-08T00:31:14.202Z,1013.00
2018-02-08T00:32:14.094Z,1013.00
2018-02-08T00:33:13.979Z,1013.00
2018-02-08T00:34:13.877Z,1012.91
2018-02-08T00:35:13.765Z,1012.95
2018-02-08T00:36:13.656Z,1013.00
2018-02-08T00:37:13.536Z,1012.99
2018-02-08T00:38:13.438Z,1012.95
2018-02-08T00:39:13.325Z,1012.98
2018-02-08T00:40:13.206Z,1012.96
2018-02-08T00:41:13.108Z,1012.94
2018-02-08T00:42:12.989Z,1012.98
2018-02-08T00:43:12.879Z,1013.03
2018-02-08T00:44:12.776Z,1013.01
2018-02-08T00:45:12.662Z,1013.02
2018-02-08T00:46:12.850Z,1013.03
2018-02-08T00:47:12.446Z,1013.03
2018-02-08T00:48:12.326Z,1013.01
2018-02-08T00:49:12.224Z,1012.96
2018-02-08T00:50:12.109Z,1012.99
2018-02-08T00:51:12.008Z,1013.03
2018-02-08T00:52:11.892Z,1012.97
2018-02-08T00:53:11.785Z,1013.03
2018-02-08T00:54:11.670Z,1012.98
2018-02-08T00:55:11.569Z,1012.98
2018-02-08T00:56:11.448Z,1013.00
2018-02-08T00:57:11.352Z,1013.01
2018-02-08T00:58:11.238Z,1013.00
2018-02-08T00:59:11.116Z,1013.03
2018-02-08T01:00:11.013Z,1013.03
2018-02-08T01:01:11.193Z,1013.03
2018-02-08T01:02:10.790Z,1013.09
2018-02-08T01:03:10.679Z,1013.08
2018-02-08T01:04:10.577Z,1013.12
2018-02-08T01:05:10.461Z,1013.10
2018-02-08T01:06:10.358Z,1013.12
2018-02-08T01:07:10.252Z,1013.09
2018-02-08T01:08:10.138Z,1013.14
2018-02-08T01:09:10.017Z,1013.14
2018-02-08T01:10:09.915Z,1013.12
2018-02-08T01:11:09.815Z,1013.12
2018-02-08T01:12:09.702Z,1013.15
2018-02-08T01:13:09.587Z,1013.16
2018-02-08T01:14:09.485Z,1013.17
2018-02-08T01:15:09.360Z,1013.14
2018-02-08T01:16:09.252Z,1013.13
2018-02-08T01:17:09.143Z,1013.14
2018-02-08T01:18:09.028Z,1013.15
2018-02-08T01:19:08.927Z,1013.16
2018-02-08T01:20:08.812Z,1013.19
2018-02-08T01:21:09.060Z,1013.18
2018-02-08T01:22:08.593Z,1013.16
2018-02-08T01:23:08.487Z,1013.17
2018-02-08T01:24:08.378Z,1013.15
2018-02-08T01:25:08.267Z,1013.20
2018-02-08T01:26:08.151Z,1013.16
2018-02-08T01:27:08.050Z,1013.15
2018-02-08T01:28:07.932Z,1013.16
2018-02-08T01:29:07.820Z,1013.18
2018-02-08T01:30:07.716Z,1013.16
2018-02-08T01:31:07.607Z,1013.20
2018-02-08T01:32:07.495Z,1013.18
2018-02-08T01:33:07.375Z,1013.16
2018-02-08T01:34:07.272Z,1013.20
2018-02-08T01:35:07.168Z,1013.18
2018-02-08T01:36:07.056Z,1013.18
2018-02-08T01:37:06.945Z,1013.16
2018-02-08T01:38:06.841Z,1013.17
2018-02-08T01:39:06.720Z,1013.20
2018-02-08T01:40:06.607Z,1013.20
2018-02-08T01:41:06.848Z,1013.23
2018-02-08T01:42:06.388Z,1013.21
2018-02-08T01:43:06.284Z,1013.22
2018-02-08T01:44:06.167Z,1013.24
2018-02-08T01:45:06.067Z,1013.23
2018-02-08T01:46:05.953Z,1013.26
2018-02-08T01:47:05.843Z,1013.29
2018-02-08T01:48:05.736Z,1013.29
2018-02-08T01:49:05.624Z,1013.26
2018-02-08T01:50:05.512Z,1013.26
2018-02-08T01:51:05.398Z,1013.23
2018-02-08T01:52:05.289Z,1013.28
2018-02-08T01:53:05.179Z,1013.27
2018-02-08T01:54:05.076Z,1013.28
2018-02-08T01:55:04.953Z,1013.29
2018-02-08T01:56:04.853Z,1013.29
2018-02-08T01:57:04.733Z,1013.32
2018-02-08T01:58:04.631Z,1013.27
2018-02-08T01:59:04.517Z,1013.28
2018-02-08T02:00:04.410Z,1013.25
2018-02-08T02:01:04.303Z,1013.23
2018-02-08T02:02:04.195Z,1013.20
2018-02-08T02:03:04.079Z,1013.20
2018-02-08T02:04:03.965Z,1013.18
2018-02-08T02:05:03.859Z,1013.15
2018-02-08T02:06:04.043Z,1013.19
2018-02-08T02:07:03.643Z,1013.21
2018-02-08T02:08:03.521Z,1013.16
2018-02-08T02:09:03.412Z,1013.16
2018-02-08T02:10:03.307Z,1013.23
2018-02-08T02:11:03.187Z,1013.20
2018-02-08T02:12:03.089Z,1013.19
2018-02-08T02:13:02.969Z,1013.24
2018-02-08T02:14:02.866Z,1013.21
2018-02-08T02:15:02.754Z,1013.24
2018-02-08T02:16:02.646Z,1013.22
2018-02-08T02:17:02.536Z,1013.24
2018-02-08T02:18:02.423Z,1013.24
2018-02-08T02:19:02.315Z,1013.23
2018-02-08T02:20:02.202Z,1013.21
2018-02-08T02:21:02.095Z,1013.22
2018-02-08T02:22:01.974Z,1013.21
2018-02-08T02:23:01.877Z,1013.20
2018-02-08T02:24:01.757Z,1013.19
2018-02-08T02:25:01.657Z,1013.16
2018-02-08T02:26:01.545Z,1013.25
2018-02-08T02:27:01.423Z,1013.24
2018-02-08T02:28:01.321Z,1013.25
2018-02-08T02:29:01.203Z,1013.24
2018-02-08T02:30:01.101Z,1013.21
2018-02-08T02:31:00.986Z,1013.21
2018-02-08T02:32:00.879Z,1013.23
2018-02-08T02:33:00.767Z,1013.26
2018-02-08T02:34:00.653Z,1013.27
2018-02-08T02:35:00.550Z,1013.27
2018-02-08T02:36:00.440Z,1013.26
2018-02-08T02:37:00.328Z,1013.23
2018-02-08T02:38:00.210Z,1013.25
2018-02-08T02:39:00.111Z,1013.26
2018-02-08T02:39:59.990Z,1013.22
2018-02-08T02:41:00.186Z,1013.23
2018-02-08T02:41:59.778Z,1013.19
2018-02-08T02:42:59.656Z,1013.18
2018-02-08T02:43:59.601Z,1013.23
2018-02-08T02:44:59.436Z,1013.22
2018-02-08T02:45:59.338Z,1013.26
2018-02-08T02:46:59.226Z,1013.24
2018-02-08T02:47:59.120Z,1013.27
2018-02-08T02:48:59.000Z,1013.30
2018-02-08T02:49:58.888Z,1013.27
2018-02-08T02:50:58.786Z,1013.25
2018-02-08T02:51:58.667Z,1013.22
2018-02-08T02:52:58.564Z,1013.24
2018-02-08T02:53:58.447Z,1013.24
2018-02-08T02:54:58.341Z,1013.22
2018-02-08T02:55:58.230Z,1013.22
2018-02-08T02:56:58.113Z,1013.24
2018-02-08T02:57:58.015Z,1013.21
2018-02-08T02:58:57.907Z,1013.19
2018-02-08T02:59:57.790Z,1013.18
2018-02-08T03:00:57.925Z,1013.18
2018-02-08T03:01:57.571Z,1013.13
2018-02-08T03:02:57.470Z,1013.19
2018-02-08T03:03:57.351Z,1013.18
2018-02-08T03:04:57.232Z,1013.14
2018-02-08T03:05:57.120Z,1013.17
2018-02-08T03:06:57.022Z,1013.18
2018-02-08T03:07:56.903Z,1013.15
2018-02-08T03:08:56.800Z,1013.19
2018-02-08T03:09:56.687Z,1013.15
2018-02-08T03:10:56.580Z,1013.17
2018-02-08T03:11:56.467Z,1013.15
2018-02-08T03:12:56.344Z,1013.16
2018-02-08T03:13:56.238Z,1013.16
2018-02-08T03:14:56.134Z,1013.17
2018-02-08T03:15:56.022Z,1013.16
2018-02-08T03:16:55.912Z,1013.17
2018-02-08T03:17:55.811Z,1013.16
2018-02-08T03:18:55.688Z,1013.19
2018-02-08T03:19:55.577Z,1013.22
2018-02-08T03:20:55.468Z,1013.22
2018-02-08T03:21:55.352Z,1013.22
2018-02-08T03:22:55.258Z,1013.27
2018-02-08T03:23:55.130Z,1013.23
2018-02-08T03:24:55.032Z,1013.26
2018-02-08T03:25:54.916Z,1013.23
2018-02-08T03:26:54.796Z,1013.23
2018-02-08T03:27:54.700Z,1013.20
2018-02-08T03:28:54.580Z,1013.20
2018-02-08T03:29:54.482Z,1013.19
2018-02-08T03:30:54.369Z,1013.24
2018-02-08T03:31:54.260Z,1013.23
2018-02-08T03:32:54.146Z,1013.18
2018-02-08T03:33:54.032Z,1013.18
2018-02-08T03:34:53.923Z,1013.18
2018-02-08T03:35:53.814Z,1013.19
2018-02-08T03:36:53.707Z,1013.20
2018-02-08T03:37:53.585Z,1013.20
2018-02-08T03:38:53.485Z,1013.19
2018-02-08T03:39:53.369Z,1013.23
2018-02-08T03:40:53.258Z,1013.20
2018-02-08T03:41:53.155Z,1013.22
2018-02-08T03:42:53.032Z,1013.19
2018-02-08T03:43:52.932Z,1013.24
2018-02-08T03:44:52.815Z,1013.26
2018-02-08T03:45:52.702Z,1013.20
2018-02-08T03:46:52.598Z,1013.16
2018-02-08T03:47:52.482Z,1013.16
2018-02-08T03:48:52.378Z,1013.19
2018-02-08T03:49:52.264Z,1013.21
2018-02-08T03:50:52.161Z,1013.20
2018-02-08T03:51:52.042Z,1013.20
2018-02-08T03:52:51.926Z,1013.20
2018-02-08T03:53:51.819Z,1013.23
2018-02-08T03:54:51.709Z,1013.24
2018-02-08T03:55:51.851Z,1013.19
2018-02-08T03:56:51.494Z,1013.23
2018-02-08T03:57:51.376Z,1013.20
2018-02-08T03:58:51.266Z,1013.19
2018-02-08T03:59:51.154Z,1013.22
2018-02-08T04:00:51.051Z,1013.14
2018-02-08T04:01:50.929Z,1013.18
2018-02-08T04:02:50.834Z,1013.24
2018-02-08T04:03:50.716Z,1013.24
2018-02-08T04:04:50.605Z,1013.26
2018-02-08T04:05:50.498Z,1013.26
2018-02-08T04:06:50.378Z,1013.32
2018-02-08T04:07:50.281Z,1013.32
2018-02-08T04:08:50.175Z,1013.31
2018-02-08T04:09:50.055Z,1013.32
2018-02-08T04:10:49.943Z,1013.27
2018-02-08T04:11:49.822Z,1013.34
2018-02-08T04:12:49.727Z,1013.32
2018-02-08T04:13:49.612Z,1013.35
2018-02-08T04:14:49.499Z,1013.39
2018-02-08T04:15:49.390Z,1013.39
2018-02-08T04:16:49.270Z,1013.35
2018-02-08T04:17:49.168Z,1013.37
2018-02-08T04:18:49.054Z,1013.36
2018-02-08T04:19:48.945Z,1013.33
2018-02-08T04:20:49.084Z,1013.33
2018-02-08T04:21:48.730Z,1013.34
2018-02-08T04:22:48.622Z,1013.32
2018-02-08T04:23:48.502Z,1013.37
2018-02-08T04:24:48.397Z,1013.36
2018-02-08T04:25:48.279Z,1013.34
2018-02-08T04:26:48.176Z,1013.39
2018-02-08T04:27:48.059Z,1013.37
2018-02-08T04:28:47.947Z,1013.38
2018-02-08T04:29:47.845Z,1013.40
2018-02-08T04:30:47.724Z,1013.42
2018-02-08T04:31:47.622Z,1013.41
2018-02-08T04:32:47.508Z,1013.39
2018-02-08T04:33:47.399Z,1013.42
2018-02-08T04:34:47.286Z,1013.44
2018-02-08T04:35:47.170Z,1013.43
2018-02-08T04:36:47.087Z,1013.45
2018-02-08T04:37:46.962Z,1013.41
2018-02-08T04:38:46.848Z,1013.46
2018-02-08T04:39:46.735Z,1013.50
2018-02-08T04:40:46.629Z,1013.47
2018-02-08T04:41:46.513Z,1013.49
2018-02-08T04:42:46.399Z,1013.50
2018-02-08T04:43:46.294Z,1013.53
2018-02-08T04:44:46.179Z,1013.47
2018-02-08T04:45:46.067Z,1013.51
2018-02-08T04:46:45.955Z,1013.49
2018-02-08T04:47:45.849Z,1013.57
2018-02-08T04:48:45.741Z,1013.58
2018-02-08T04:49:45.626Z,1013.56
2018-02-08T04:50:45.514Z,1013.62
2018-02-08T04:51:45.407Z,1013.60
2018-02-08T04:52:45.290Z,1013.59
2018-02-08T04:53:45.189Z,1013.57
2018-02-08T04:54:45.067Z,1013.56
2018-02-08T04:55:44.963Z,1013.62
2018-02-08T04:56:44.844Z,1013.64
2018-02-08T04:57:44.735Z,1013.65
2018-02-08T04:58:44.629Z,1013.68
2018-02-08T04:59:44.518Z,1013.64
2018-02-08T05:00:44.404Z,1013.68
2018-02-08T05:01:44.296Z,1013.68
2018-02-08T05:02:44.183Z,1013.73
2018-02-08T05:03:44.080Z,1013.70
2018-02-08T05:04:43.963Z,1013.75
2018-02-08T05:05:43.852Z,1013.79
2018-02-08T05:06:43.751Z,1013.81
2018-02-08T05:07:43.629Z,1013.79
2018-02-08T05:08:43.513Z,1013.80
2018-02-08T05:09:43.407Z,1013.86
2018-02-08T05:10:43.295Z,1013.79
2018-02-08T05:11:43.186Z,1013.81
2018-02-08T05:12:43.079Z,1013.81
2018-02-08T05:13:42.963Z,1013.78
2018-02-08T05:14:42.852Z,1013.83
2018-02-08T05:15:42.737Z,1013.82
2018-02-08T05:16:42.672Z,1013.84
2018-02-08T05:17:42.515Z,1013.82
2018-02-08T05:18:42.405Z,1013.81
2018-02-08T05:19:42.311Z,1013.81
2018-02-08T05:20:42.186Z,1013.83
2018-02-08T05:21:42.071Z,1013.85
2018-02-08T05:22:41.967Z,1013.89
2018-02-08T05:23:41.850Z,1013.86
2018-02-08T05:24:41.742Z,1013.90
2018-02-08T05:25:41.632Z,1013.91
2018-02-08T05:26:41.519Z,1013.92
2018-02-08T05:27:41.411Z,1013.95
2018-02-08T05:28:41.308Z,1013.87
2018-02-08T05:29:41.191Z,1013.91
2018-02-08T05:30:41.073Z,1013.92
2018-02-08T05:31:40.968Z,1013.88
2018-02-08T05:32:40.857Z,1013.83
2018-02-08T05:33:40.739Z,1013.89
2018-02-08T05:34:40.629Z,1013.87
2018-02-08T05:35:40.771Z,1013.89
2018-02-08T05:36:40.407Z,1013.91
2018-02-08T05:37:40.309Z,1013.91
2018-02-08T05:38:40.189Z,1013.94
2018-02-08T05:39:40.075Z,1013.91
2018-02-08T05:40:39.968Z,1014.00
2018-02-08T05:41:39.850Z,1013.97
2018-02-08T05:42:39.741Z,1014.00
2018-02-08T05:43:39.635Z,1014.01
2018-02-08T05:44:39.519Z,1013.99
2018-02-08T05:45:39.424Z,1013.99
2018-02-08T05:46:39.301Z,1014.03
2018-02-08T05:47:39.185Z,1013.96
2018-02-08T05:48:39.075Z,1014.02
2018-02-08T05:49:38.962Z,1014.07
2018-02-08T05:50:38.860Z,1014.10
2018-02-08T05:51:38.741Z,1014.10
2018-02-08T05:52:38.630Z,1014.09
2018-02-08T05:53:38.527Z,1014.11
2018-02-08T05:54:38.406Z,1014.09
2018-02-08T05:55:38.293Z,1014.15
2018-02-08T05:56:38.192Z,1014.14
2018-02-08T05:57:38.069Z,1014.16
2018-02-08T05:58:37.960Z,1014.14
2018-02-08T05:59:37.858Z,1014.15
2018-02-08T06:00:38.043Z,1014.15
2018-02-08T06:01:37.640Z,1014.11
2018-02-08T06:02:37.522Z,1014.17
2018-02-08T06:03:37.409Z,1014.14
2018-02-08T06:04:37.307Z,1014.16
2018-02-08T06:05:37.184Z,1014.14
2018-02-08T06:06:37.074Z,1014.18
2018-02-08T06:07:36.966Z,1014.19
2018-02-08T06:08:36.852Z,1014.15
2018-02-08T06:09:36.741Z,1014.18
2018-02-08T06:10:36.631Z,1014.17
2018-02-08T06:11:36.515Z,1014.15
2018-02-08T06:12:36.414Z,1014.15
2018-02-08T06:13:36.292Z,1014.17
2018-02-08T06:14:36.180Z,1014.20
2018-02-08T06:15:36.073Z,1014.20
2018-02-08T06:16:35.960Z,1014.22
2018-02-08T06:17:35.849Z,1014.21
2018-02-08T06:18:35.738Z,1014.26
2018-02-08T06:19:35.635Z,1014.29
2018-02-08T06:20:35.534Z,1014.28
2018-02-08T06:21:35.404Z,1014.26
2018-02-08T06:22:35.294Z,1014.23
2018-02-08T06:23:35.188Z,1014.24
2018-02-08T06:24:35.077Z,1014.24
2018-02-08T06:25:34.956Z,1014.20
2018-02-08T06:26:34.854Z,1014.26
2018-02-08T06:27:34.743Z,1014.27
2018-02-08T06:28:34.619Z,1014.24
2018-02-08T06:29:34.531Z,1014.24
2018-02-08T06:30:34.457Z,1014.32
2018-02-08T06:31:34.297Z,1014.31
2018-02-08T06:32:34.184Z,1014.35
2018-02-08T06:33:34.070Z,1014.34
2018-02-08T06:34:33.966Z,1014.38
2018-02-08T06:35:33.847Z,1014.32
2018-02-08T06:36:33.731Z,1014.34
2018-02-08T06:37:33.630Z,1014.35
2018-02-08T06:38:33.512Z,1014.35
2018-02-08T06:39:33.396Z,1014.33
2018-02-08T06:40:33.300Z,1014.38
2018-02-08T06:41:33.181Z,1014.35
2018-02-08T06:42:33.075Z,1014.32
2018-02-08T06:43:32.958Z,1014.38
2018-02-08T06:44:32.838Z,1014.37
2018-02-08T06:45:32.735Z,1014.42
2018-02-08T06:46:32.626Z,1014.40
2018-02-08T06:47:32.508Z,1014.44
2018-02-08T06:48:32.409Z,1014.41
2018-02-08T06:49:32.295Z,1014.46
2018-02-08T06:50:32.174Z,1014.47
2018-02-08T06:51:32.085Z,1014.48
2018-02-08T06:52:31.951Z,1014.50
2018-02-08T06:53:31.836Z,1014.47
2018-02-08T06:54:31.741Z,1014.42
2018-02-08T06:55:31.621Z,1014.47
2018-02-08T06:56:31.504Z,1014.45
2018-02-08T06:57:31.399Z,1014.46
2018-02-08T06:58:31.283Z,1014.44
2018-02-08T06:59:31.184Z,1014.49
2018-02-08T07:00:31.065Z,1014.47
2018-02-08T07:01:30.948Z,1014.48
2018-02-08T07:02:30.852Z,1014.50
2018-02-08T07:03:30.731Z,1014.53
2018-02-08T07:04:30.612Z,1014.51
2018-02-08T07:05:30.510Z,1014.52
2018-02-08T07:06:30.396Z,1014.56
2018-02-08T07:07:30.275Z,1014.57
2018-02-08T07:08:30.180Z,1014.53
2018-02-08T07:09:30.064Z,1014.57
2018-02-08T07:10:29.944Z,1014.57
2018-02-08T07:11:29.843Z,1014.52
2018-02-08T07:12:29.726Z,1014.57
2018-02-08T07:13:29.618Z,1014.54
2018-02-08T07:14:29.507Z,1014.55
2018-02-08T07:15:29.386Z,1014.54
2018-02-08T07:16:29.290Z,1014.58
2018-02-08T07:17:29.176Z,1014.56
2018-02-08T07:18:29.051Z,1014.60
2018-02-08T07:19:28.952Z,1014.57
2018-02-08T07:20:29.085Z,1014.60
2018-02-08T07:21:28.716Z,1014.60
2018-02-08T07:22:28.620Z,1014.56
2018-02-08T07:23:28.500Z,1014.62
2018-02-08T07:24:28.387Z,1014.63
2018-02-08T07:25:28.283Z,1014.59
2018-02-08T07:26:28.167Z,1014.62
2018-02-08T07:27:28.070Z,1014.67
2018-02-08T07:28:27.942Z,1014.63
2018-02-08T07:29:27.827Z,1014.65
2018-02-08T07:30:27.727Z,1014.70
2018-02-08T07:31:27.611Z,1014.72
2018-02-08T07:32:27.502Z,1014.70
2018-02-08T07:33:27.395Z,1014.72
2018-02-08T07:34:27.274Z,1014.71
2018-02-08T07:35:27.176Z,1014.69
2018-02-08T07:36:27.057Z,1014.70
2018-02-08T07:37:26.940Z,1014.70
2018-02-08T07:38:26.840Z,1014.74
2018-02-08T07:39:26.743Z,1014.70
2018-02-08T07:40:26.608Z,1014.66
2018-02-08T07:41:26.504Z,1014.67
2018-02-08T07:42:26.390Z,1014.67
2018-02-08T07:43:26.287Z,1014.70
2018-02-08T07:44:26.167Z,1014.66
2018-02-08T07:45:26.056Z,1014.66
2018-02-08T07:46:25.951Z,1014.67
2018-02-08T07:47:25.833Z,1014.68
2018-02-08T07:48:25.736Z,1014.71
2018-02-08T07:49:25.614Z,1014.73
2018-02-08T07:50:25.500Z,1014.71
2018-02-08T07:51:25.400Z,1014.71
2018-02-08T07:52:25.282Z,1014.77
2018-02-08T07:53:25.161Z,1014.78
2018-02-08T07:54:25.059Z,1014.76
2018-02-08T07:55:24.943Z,1014.77
2018-02-08T07:56:24.843Z,1014.81
2018-02-08T07:57:24.727Z,1014.83
2018-02-08T07:58:24.621Z,1014.80
2018-02-08T07:59:24.510Z,1014.84
2018-02-08T08:00:24.398Z,1014.85
2018-02-08T08:01:24.299Z,1014.82
2018-02-08T08:02:24.171Z,1014.87
2018-02-08T08:03:24.066Z,1014.88
2018-02-08T08:04:23.956Z,1014.84
2018-02-08T08:05:23.838Z,1014.85
2018-02-08T08:06:23.732Z,1014.87
2018-02-08T08:07:23.616Z,1014.84
2018-02-08T08:08:23.514Z,1014.82
2018-02-08T08:09:23.394Z,1014.82
2018-02-08T08:10:23.299Z,1014.87
2018-02-08T08:11:23.177Z,1014.85
2018-02-08T08:12:23.066Z,1014.89
2018-02-08T08:13:22.963Z,1014.81
2018-02-08T08:14:22.843Z,1014.86
2018-02-08T08:15:22.743Z,1014.85
2018-02-08T08:16:22.626Z,1014.90
2018-02-08T08:17:22.509Z,1014.93
2018-02-08T08:18:22.405Z,1014.90
2018-02-08T08:19:22.287Z,1014.91
2018-02-08T08:20:22.189Z,1014.90
2018-02-08T08:21:22.077Z,1014.89
2018-02-08T08:22:21.964Z,1014.90
2018-02-08T08:23:21.858Z,1014.86
2018-02-08T08:24:21.736Z,1014.86
2018-02-08T08:25:21.630Z,1014.88
2018-02-08T08:26:21.519Z,1014.91
2018-02-08T08:27:21.409Z,1014.93
2018-02-08T08:28:21.303Z,1014.96
2018-02-08T08:29:21.194Z,1014.96
2018-02-08T08:30:21.077Z,1014.96
2018-02-08T08:31:20.977Z,1014.95
2018-02-08T08:32:20.856Z,1014.97
2018-02-08T08:33:20.756Z,1014.99
2018-02-08T08:34:20.647Z,1015.00
2018-02-08T08:35:20.536Z,1015.02
2018-02-08T08:36:20.426Z,1015.07
2018-02-08T08:37:20.317Z,1015.01
2018-02-08T08:38:20.197Z,1015.02
2018-02-08T08:39:20.104Z,1015.00
2018-02-08T08:40:19.981Z,1015.05
2018-02-08T08:41:19.878Z,1015.07
2018-02-08T08:42:19.764Z,1015.06
2018-02-08T08:43:19.660Z,1015.06
2018-02-08T08:44:19.550Z,1015.02
2018-02-08T08:45:19.431Z,1015.06
2018-02-08T08:46:19.323Z,1015.10
2018-02-08T08:47:19.216Z,1015.07
2018-02-08T08:48:19.105Z,1015.04
2018-02-08T08:49:18.988Z,1015.08
2018-02-08T08:50:18.890Z,1015.11
2018-02-08T08:51:18.771Z,1015.17
2018-02-08T08:52:18.682Z,1015.15
2018-02-08T08:53:18.566Z,1015.19
2018-02-08T08:54:18.446Z,1015.19
2018-02-08T08:55:18.349Z,1015.16
2018-02-08T08:56:18.231Z,1015.17
2018-02-08T08:57:18.141Z,1015.20
2018-02-08T08:58:18.012Z,1015.19
2018-02-08T08:59:17.910Z,1015.23
2018-02-08T09:00:17.796Z,1015.22
2018-02-08T09:01:17.687Z,1015.20
2018-02-08T09:02:17.569Z,1015.21
2018-02-08T09:03:17.473Z,1015.24
2018-02-08T09:04:17.350Z,1015.18
2018-02-08T09:05:17.249Z,1015.21
2018-02-08T09:06:17.135Z,1015.17
2018-02-08T09:07:17.032Z,1015.19
2018-02-08T09:08:16.919Z,1015.18
2018-02-08T09:09:16.817Z,1015.22
2018-02-08T09:10:16.707Z,1015.24
2018-02-08T09:11:16.593Z,1015.21
2018-02-08T09:12:16.491Z,1015.27
2018-02-08T09:13:16.377Z,1015.24
2018-02-08T09:14:16.269Z,1015.26
2018-02-08T09:15:16.159Z,1015.29
2018-02-08T09:16:16.046Z,1015.25
2018-02-08T09:17:15.937Z,1015.25
2018-02-08T09:18:15.834Z,1015.31
2018-02-08T09:19:15.727Z,1015.26
2018-02-08T09:20:15.618Z,1015.30
2018-02-08T09:21:15.512Z,1015.28
2018-02-08T09:22:15.392Z,1015.35
2018-02-08T09:23:15.292Z,1015.31
2018-02-08T09:24:15.175Z,1015.30
2018-02-08T09:25:15.067Z,1015.30
2018-02-08T09:26:14.967Z,1015.29
2018-02-08T09:27:14.851Z,1015.35
2018-02-08T09:28:14.748Z,1015.29
2018-02-08T09:29:14.632Z,1015.31
2018-02-08T09:30:14.524Z,1015.31
2018-02-08T09:31:14.428Z,1015.33
2018-02-08T09:32:14.312Z,1015.30
2018-02-08T09:33:14.203Z,1015.33
2018-02-08T09:34:14.094Z,1015.37
2018-02-08T09:35:13.990Z,1015.37
2018-02-08T09:36:13.872Z,1015.37
2018-02-08T09:37:13.769Z,1015.38
2018-02-08T09:38:13.677Z,1015.42
2018-02-08T09:39:13.556Z,1015.44
2018-02-08T09:40:13.447Z,1015.41
2018-02-08T09:41:13.329Z,1015.45
2018-02-08T09:42:13.231Z,1015.39
2018-02-08T09:43:13.121Z,1015.34
2018-02-08T09:44:13.012Z,1015.35
2018-02-08T09:45:12.907Z,1015.38
2018-02-08T09:46:12.787Z,1015.40
2018-02-08T09:47:12.684Z,1015.36
2018-02-08T09:48:12.577Z,1015.37
2018-02-08T09:49:12.465Z,1015.40
2018-02-08T09:50:12.368Z,1015.38
2018-02-08T09:51:12.245Z,1015.35
2018-02-08T09:52:12.158Z,1015.39
2018-02-08T09:53:12.042Z,1015.42
2018-02-08T09:54:11.922Z,1015.38
2018-02-08T09:55:11.824Z,1015.38
2018-02-08T09:56:11.702Z,1015.40
2018-02-08T09:57:11.611Z,1015.39
2018-02-08T09:58:11.499Z,1015.45
2018-02-08T09:59:11.435Z,1015.44
2018-02-08T10:00:11.279Z,1015.47
2018-02-08T10:01:11.177Z,1015.47
2018-02-08T10:02:11.056Z,1015.47
2018-02-08T10:03:10.962Z,1015.47
2018-02-08T10:04:10.841Z,1015.51
2018-02-08T10:05:10.737Z,1015.46
2018-02-08T10:06:10.636Z,1015.44
2018-02-08T10:07:10.519Z,1015.45
2018-02-08T10:08:10.420Z,1015.45
2018-02-08T10:09:10.314Z,1015.47
2018-02-08T10:10:10.192Z,1015.45
2018-02-08T10:11:10.097Z,1015.45
2018-02-08T10:12:09.977Z,1015.44
2018-02-08T10:13:09.875Z,1015.44
2018-02-08T10:14:09.772Z,1015.46
2018-02-08T10:15:09.666Z,1015.40
2018-02-08T10:16:09.551Z,1015.44
2018-02-08T10:17:09.447Z,1015.44
2018-02-08T10:18:09.346Z,1015.41
2018-02-08T10:19:09.234Z,1015.41
2018-02-08T10:20:09.123Z,1015.40
2018-02-08T10:21:09.007Z,1015.39
2018-02-08T10:22:08.911Z,1015.39
2018-02-08T10:23:08.799Z,1015.40
2018-02-08T10:24:08.690Z,1015.36
2018-02-08T10:25:08.587Z,1015.33
2018-02-08T10:26:08.482Z,1015.39
2018-02-08T10:27:08.366Z,1015.35
2018-02-08T10:28:08.261Z,1015.38
2018-02-08T10:29:08.160Z,1015.31
2018-02-08T10:30:08.049Z,1015.37
2018-02-08T10:31:07.936Z,1015.37
2018-02-08T10:32:07.840Z,1015.35
2018-02-08T10:33:07.722Z,1015.32
2018-02-08T10:34:07.613Z,1015.33
2018-02-08T10:35:07.513Z,1015.35
2018-02-08T10:36:07.393Z,1015.31
2018-02-08T10:37:07.289Z,1015.30
2018-02-08T10:38:07.195Z,1015.27
2018-02-08T10:39:07.073Z,1015.29
2018-02-08T10:40:06.975Z,1015.31
2018-02-08T10:41:06.873Z,1015.28
2018-02-08T10:42:06.749Z,1015.30
2018-02-08T10:43:06.652Z,1015.27
2018-02-08T10:44:06.547Z,1015.27
2018-02-08T10:45:06.430Z,1015.27
2018-02-08T10:46:06.326Z,1015.27
2018-02-08T10:47:06.225Z,1015.28
2018-02-08T10:48:06.109Z,1015.30
2018-02-08T10:49:06.004Z,1015.26
2018-02-08T10:50:05.899Z,1015.27
2018-02-08T10:51:05.799Z,1015.29
2018-02-08T10:52:05.679Z,1015.28
2018-02-08T10:53:05.578Z,1015.30
2018-02-08T10:54:05.477Z,1015.30
2018-02-08T10:55:05.355Z,1015.32
2018-02-08T10:56:05.259Z,1015.33
2018-02-08T10:57:05.159Z,1015.27
2018-02-08T10:58:05.044Z,1015.28
2018-02-08T10:59:04.937Z,1015.30
2018-02-08T11:00:04.828Z,1015.31
2018-02-08T11:01:04.725Z,1015.28
2018-02-08T11:02:04.612Z,1015.25
2018-02-08T11:03:04.504Z,1015.26
2018-02-08T11:04:04.407Z,1015.27
2018-02-08T11:05:04.292Z,1015.30
2018-02-08T11:06:04.183Z,1015.24
2018-02-08T11:07:04.083Z,1015.24
2018-02-08T11:08:03.968Z,1015.20
2018-02-08T11:09:03.864Z,1015.26
2018-02-08T11:10:03.760Z,1015.26
2018-02-08T11:11:03.655Z,1015.30
2018-02-08T11:12:03.541Z,1015.28
2018-02-08T11:13:03.440Z,1015.30
2018-02-08T11:14:03.334Z,1015.28
2018-02-08T11:15:03.236Z,1015.29
2018-02-08T11:16:03.109Z,1015.27
2018-02-08T11:17:03.006Z,1015.29
2018-02-08T11:18:02.913Z,1015.28
2018-02-08T11:19:02.792Z,1015.31
2018-02-08T11:20:02.684Z,1015.31
2018-02-08T11:21:02.582Z,1015.35
2018-02-08T11:22:02.474Z,1015.31
2018-02-08T11:23:02.376Z,1015.30
2018-02-08T11:24:02.265Z,1015.26
2018-02-08T11:25:02.163Z,1015.31
2018-02-08T11:26:02.042Z,1015.29
2018-02-08T11:27:01.943Z,1015.28
2018-02-08T11:28:01.833Z,1015.28
2018-02-08T11:29:01.717Z,1015.31
2018-02-08T11:30:01.618Z,1015.28
2018-02-08T11:31:01.513Z,1015.25
2018-02-08T11:32:01.417Z,1015.27
2018-02-08T11:33:01.298Z,1015.26
2018-02-08T11:34:01.190Z,1015.32
2018-02-08T11:35:01.092Z,1015.28
2018-02-08T11:36:00.972Z,1015.28
2018-02-08T11:37:00.868Z,1015.31
2018-02-08T11:38:00.768Z,1015.28
2018-02-08T11:39:00.663Z,1015.29
2018-02-08T11:40:00.549Z,1015.29
2018-02-08T11:41:00.444Z,1015.27
2018-02-08T11:42:00.336Z,1015.31
2018-02-08T11:43:00.239Z,1015.28
2018-02-08T11:44:00.123Z,1015.26
2018-02-08T11:45:00.025Z,1015.24
2018-02-08T11:45:59.917Z,1015.25
2018-02-08T11:46:59.796Z,1015.25
2018-02-08T11:47:59.700Z,1015.25
2018-02-08T11:48:59.595Z,1015.23
2018-02-08T11:49:59.486Z,1015.24
2018-02-08T11:50:59.372Z,1015.25
2018-02-08T11:51:59.271Z,1015.24
2018-02-08T11:52:59.165Z,1015.23
2018-02-08T11:53:59.068Z,1015.24
2018-02-08T11:54:58.949Z,1015.22
2018-02-08T11:55:58.845Z,1015.22
2018-02-08T11:56:58.743Z,1015.17
2018-02-08T11:57:58.622Z,1015.15
2018-02-08T11:58:58.527Z,1015.17
2018-02-08T11:59:58.420Z,1015.22
2018-02-08T12:00:58.310Z,1015.17
2018-02-08T12:01:58.198Z,1015.18
2018-02-08T12:02:58.093Z,1015.19
2018-02-08T12:03:57.994Z,1015.19